Kezdőlap
METAR-TAF:

METAR-TAF

Repülőterek :

Forest City, Iowa, Amerikai Egyesült Államok

földrajzi szélesség: 43-14-05N, földrajzi hosszúság: 093-37-27W, magasság: 375 m

Jelenlegi meteorológiai megfigyelések

A jelentés 10 perccel ezelõtt készült, 03:15 UTC
Déli szél 14 kt
Hőmérséklet -5°C
Páratartalom 73%
Légköri nyomás 1014 hPa
Látótávolság: 16.1 km
Szórványos felhőzet 12000 lábon

METAR: KFXY 270315Z AUTO 19014KT 10SM SCT120 M05/M09 A2994 RMK AO2

Idő: 21:25 (03:25 UTC)


TAF: hiányzik

Meteorológiai megfigyelések és előrejelzések több, mint 4000 repülőtéren (METAR és TAF jelentéseket).

A térképen piros és sárga pontok jelzik az elérhető meteorológiai állomásokat.

Mozgassa az egeret a pont fölött, hogy megjelenjen az állomás neve.

Azután kattintson az időjárási megfigyelések és előrejelzések megtekintéséhez.

A térkép megváltoztatása: kattintson a fekete keresztel jelölt zöld gombra ráközelítéshez, a vonallal jelölt zöld gombra távolításhoz, vagy a zöld nyilakra a szomszédos térképek eléréséhez.


METAR-TAF: